createdAt,value
2023-03-12T00:00:53.923Z,5.13
2023-03-12T00:03:02.598Z,4.93
2023-03-12T00:05:12.054Z,5.30
2023-03-12T00:07:21.059Z,4.27
2023-03-12T00:09:31.646Z,5.43
2023-03-12T00:11:40.687Z,4.03
2023-03-12T00:13:51.645Z,4.07
2023-03-12T00:16:05.137Z,4.67
2023-03-12T00:18:13.972Z,4.60
2023-03-12T00:20:23.830Z,4.87
2023-03-12T00:22:32.528Z,4.90
2023-03-12T00:24:43.150Z,4.63
2023-03-12T00:26:52.218Z,5.17
2023-03-12T00:29:01.255Z,5.47
2023-03-12T00:31:15.986Z,4.90
2023-03-12T00:33:24.585Z,5.20
2023-03-12T00:35:34.443Z,5.40
2023-03-12T00:37:42.938Z,5.10
2023-03-12T00:39:53.880Z,5.63
2023-03-12T00:42:02.969Z,4.03
2023-03-12T00:44:11.495Z,4.57
2023-03-12T00:46:20.896Z,4.00
2023-03-12T00:48:29.657Z,3.70
2023-03-12T00:50:38.712Z,4.07
2023-03-12T00:52:47.397Z,3.90
2023-03-12T00:54:59.023Z,3.77
2023-03-12T00:57:08.043Z,3.80
2023-03-12T00:59:17.149Z,4.03
2023-03-12T01:01:27.846Z,4.37
2023-03-12T01:03:37.036Z,3.80
2023-03-12T01:05:45.956Z,4.80
2023-03-12T01:07:54.648Z,4.30
2023-03-12T01:10:04.617Z,4.67
2023-03-12T01:12:13.246Z,4.13
2023-03-12T01:14:22.228Z,4.90
2023-03-12T01:16:31.871Z,4.60
2023-03-12T01:18:40.880Z,3.77
2023-03-12T01:20:49.998Z,4.13
2023-03-12T01:22:58.793Z,3.30
2023-03-12T01:25:10.038Z,3.50
2023-03-12T01:27:18.732Z,3.40
2023-03-12T01:29:27.246Z,4.33
2023-03-12T01:31:36.073Z,4.13
2023-03-12T01:33:45.151Z,3.50
2023-03-12T01:35:54.179Z,3.13
2023-03-12T01:38:02.779Z,3.10
2023-03-12T01:40:16.760Z,3.43
2023-03-12T01:42:25.335Z,3.33
2023-03-12T01:44:49.204Z,2.77
2023-03-12T01:46:58.256Z,2.10
2023-03-12T01:49:10.126Z,2.10
2023-03-12T01:51:19.741Z,2.70
2023-03-12T01:53:29.308Z,2.00
2023-03-12T01:55:40.150Z,2.33
2023-03-12T01:57:51.377Z,2.33
2023-03-12T02:00:01.345Z,2.57
2023-03-12T02:02:10.840Z,2.10
2023-03-12T02:04:20.877Z,2.40
2023-03-12T02:06:33.186Z,2.70
2023-03-12T02:08:43.908Z,2.10
2023-03-12T02:10:54.400Z,3.10
2023-03-12T02:13:03.131Z,2.83
2023-03-12T02:15:12.946Z,3.23
2023-03-12T02:17:21.647Z,2.60
2023-03-12T02:19:35.245Z,2.43
2023-03-12T02:21:44.579Z,2.40
2023-03-12T02:23:57.205Z,2.37
2023-03-12T02:26:08.475Z,2.40
2023-03-12T02:28:18.270Z,2.77
2023-03-12T02:30:27.703Z,2.63
2023-03-12T02:32:37.575Z,2.80
2023-03-12T02:34:48.122Z,2.53
2023-03-12T02:36:57.285Z,2.83
2023-03-12T02:39:06.525Z,3.00
2023-03-12T02:41:19.357Z,2.83
2023-03-12T02:43:28.171Z,2.70
2023-03-12T02:45:37.898Z,3.10
2023-03-12T02:47:46.808Z,2.83
2023-03-12T02:49:55.911Z,2.63
2023-03-12T02:52:04.807Z,2.07
2023-03-12T02:54:14.191Z,2.50
2023-03-12T02:56:25.215Z,2.30
2023-03-12T02:58:33.918Z,2.67
2023-03-12T03:00:42.851Z,2.07
2023-03-12T03:02:52.122Z,2.40
2023-03-12T03:05:00.906Z,2.57
2023-03-12T03:07:09.859Z,1.30
2023-03-12T03:09:19.468Z,1.57
2023-03-12T03:11:29.669Z,2.57
2023-03-12T03:13:38.505Z,2.47
2023-03-12T03:15:47.243Z,2.00
2023-03-12T03:17:56.010Z,2.03
2023-03-12T03:20:07.577Z,1.70
2023-03-12T03:22:16.310Z,2.03
2023-03-12T03:24:25.337Z,2.30
2023-03-12T03:26:35.525Z,1.70
2023-03-12T03:30:52.008Z,1.50
2023-03-12T03:33:00.815Z,2.40
2023-03-12T03:35:10.312Z,1.90
2023-03-12T03:37:18.928Z,1.63
2023-03-12T03:39:28.723Z,1.80
2023-03-12T03:41:39.725Z,1.50
2023-03-12T03:43:48.594Z,2.07
2023-03-12T03:46:00.776Z,2.07
2023-03-12T03:48:09.950Z,1.60
2023-03-12T03:50:19.196Z,1.80
2023-03-12T03:52:27.993Z,1.90
2023-03-12T03:54:37.111Z,1.63
2023-03-12T03:56:47.693Z,1.80
2023-03-12T03:58:56.606Z,1.70
2023-03-12T04:01:06.105Z,1.70
2023-03-12T04:03:15.649Z,1.13
2023-03-12T04:05:25.585Z,1.13
2023-03-12T04:07:35.298Z,1.00
2023-03-12T04:09:43.839Z,1.70
2023-03-12T04:11:54.147Z,1.00
2023-03-12T04:14:02.804Z,1.67
2023-03-12T04:16:12.424Z,1.23
2023-03-12T04:18:21.741Z,1.13
2023-03-12T04:20:30.938Z,1.40
2023-03-12T04:22:39.803Z,1.27
2023-03-12T04:24:48.994Z,1.40
2023-03-12T04:27:00.769Z,1.20
2023-03-12T04:29:09.373Z,1.40
2023-03-12T04:31:18.179Z,1.20
2023-03-12T04:33:27.003Z,1.07
2023-03-12T04:35:36.323Z,1.57
2023-03-12T04:37:44.966Z,1.20
2023-03-12T04:39:53.591Z,0.77
2023-03-12T04:42:04.313Z,0.90
2023-03-12T04:44:13.051Z,1.50
2023-03-12T04:46:21.987Z,1.47
2023-03-12T04:48:30.658Z,1.27
2023-03-12T04:50:40.000Z,1.23
2023-03-12T04:52:49.309Z,1.67
2023-03-12T04:54:59.564Z,0.63
2023-03-12T04:57:09.647Z,0.97
2023-03-12T04:59:18.522Z,1.07
2023-03-12T05:01:28.213Z,1.50
2023-03-12T05:03:38.714Z,1.43
2023-03-12T05:05:48.026Z,1.40
2023-03-12T05:07:56.849Z,1.33
2023-03-12T05:10:05.977Z,1.70
2023-03-12T05:12:16.156Z,1.20
2023-03-12T05:14:25.254Z,1.47
2023-03-12T05:16:34.478Z,0.97
2023-03-12T05:18:43.424Z,1.50
2023-03-12T05:21:00.122Z,1.30
2023-03-12T05:23:08.894Z,1.00
2023-03-12T05:25:17.911Z,1.20
2023-03-12T05:27:28.730Z,1.30
2023-03-12T05:29:38.374Z,1.27
2023-03-12T05:31:47.472Z,1.10
2023-03-12T05:33:56.088Z,1.33
2023-03-12T05:36:05.511Z,1.30
2023-03-12T05:38:14.304Z,1.50
2023-03-12T05:40:23.404Z,1.60
2023-03-12T05:42:33.486Z,1.07
2023-03-12T05:44:42.017Z,1.10
2023-03-12T05:46:50.949Z,1.43
2023-03-12T05:49:00.019Z,1.60
2023-03-12T05:51:09.053Z,1.10
2023-03-12T05:53:17.661Z,1.40
2023-03-12T05:55:26.782Z,1.23
2023-03-12T05:57:36.731Z,1.03
2023-03-12T05:59:45.502Z,1.13
2023-03-12T06:01:54.674Z,1.10
2023-03-12T06:04:03.321Z,1.37
2023-03-12T06:06:12.668Z,1.20
2023-03-12T06:08:21.310Z,1.23
2023-03-12T06:10:30.593Z,1.70
2023-03-12T06:12:41.004Z,1.83
2023-03-12T06:14:49.988Z,1.80
2023-03-12T06:16:58.737Z,1.57
2023-03-12T06:19:08.396Z,1.53
2023-03-12T06:21:18.031Z,1.53
2023-03-12T06:23:27.137Z,1.57
2023-03-12T06:25:35.886Z,1.40
2023-03-12T06:27:46.191Z,1.80
2023-03-12T06:29:55.179Z,1.50
2023-03-12T06:32:04.206Z,1.10
2023-03-12T06:34:13.147Z,1.43
2023-03-12T06:36:23.124Z,1.40
2023-03-12T06:38:31.794Z,1.77
2023-03-12T06:40:40.782Z,1.27
2023-03-12T06:42:50.942Z,1.83
2023-03-12T06:44:59.604Z,1.60
2023-03-12T06:47:08.717Z,1.90
2023-03-12T06:49:17.474Z,1.73
2023-03-12T06:51:26.389Z,2.00
2023-03-12T06:53:35.243Z,2.40
2023-03-12T06:55:45.335Z,1.77
2023-03-12T06:57:55.677Z,1.60
2023-03-12T07:00:04.971Z,2.10
2023-03-12T07:02:14.026Z,1.33
2023-03-12T07:04:22.755Z,2.03
2023-03-12T07:06:31.857Z,1.83
2023-03-12T07:08:40.525Z,1.30
2023-03-12T07:10:49.198Z,1.50
2023-03-12T07:12:59.978Z,1.50
2023-03-12T07:15:09.055Z,1.50
2023-03-12T07:17:17.681Z,1.73
2023-03-12T07:19:26.514Z,1.20
2023-03-12T07:21:35.205Z,1.37
2023-03-12T07:23:44.080Z,0.70
2023-03-12T07:25:53.499Z,1.10
2023-03-12T07:28:03.821Z,0.77
2023-03-12T07:30:13.223Z,0.97
2023-03-12T07:32:22.422Z,1.13
2023-03-12T07:34:31.335Z,0.90
2023-03-12T07:36:40.499Z,0.60
2023-03-12T07:38:50.081Z,0.70
2023-03-12T07:41:00.784Z,0.50
2023-03-12T07:43:12.536Z,2.63
2023-03-12T07:45:22.287Z,1.30
2023-03-12T07:47:31.189Z,0.97
2023-03-12T07:49:41.847Z,0.50
2023-03-12T07:51:52.529Z,0.60
2023-03-12T07:54:01.591Z,0.60
2023-03-12T07:56:10.925Z,0.60
2023-03-12T07:58:21.197Z,0.50
2023-03-12T08:00:30.558Z,0.63
2023-03-12T08:02:39.764Z,0.63
2023-03-12T08:04:49.145Z,0.63
2023-03-12T08:06:58.254Z,0.70
2023-03-12T08:09:07.034Z,0.47
2023-03-12T08:11:15.693Z,0.83
2023-03-12T08:13:26.397Z,0.50
2023-03-12T08:15:35.530Z,0.53
2023-03-12T08:17:44.256Z,0.77
2023-03-12T08:19:52.836Z,0.53
2023-03-12T08:22:01.921Z,0.47
2023-03-12T08:24:12.065Z,0.60
2023-03-12T08:26:21.066Z,0.80
2023-03-12T08:28:31.924Z,1.00
2023-03-12T08:30:41.211Z,1.33
2023-03-12T08:32:49.967Z,0.50
2023-03-12T08:34:59.216Z,0.70
2023-03-12T08:37:08.437Z,0.90
2023-03-12T08:39:17.465Z,0.83
2023-03-12T08:41:26.508Z,0.80
2023-03-12T08:43:36.615Z,0.70
2023-03-12T08:45:45.809Z,0.70
2023-03-12T08:47:54.626Z,0.73
2023-03-12T08:50:03.835Z,0.53
2023-03-12T08:52:12.983Z,0.50
2023-03-12T08:54:22.515Z,0.63
2023-03-12T08:56:32.083Z,0.60
2023-03-12T08:58:42.705Z,0.93
2023-03-12T09:00:51.446Z,0.50
2023-03-12T09:03:00.295Z,0.60
2023-03-12T09:05:09.462Z,0.53
2023-03-12T09:07:19.013Z,0.70
2023-03-12T09:09:28.439Z,0.60
2023-03-12T09:11:39.826Z,0.50
2023-03-12T09:14:16.897Z,0.60
2023-03-12T09:16:18.910Z,0.60
2023-03-12T09:18:27.814Z,0.93
2023-03-12T09:20:36.906Z,2.63
2023-03-12T09:22:45.585Z,1.60
2023-03-12T09:24:54.773Z,0.40
2023-03-12T09:27:04.636Z,0.70
2023-03-12T09:29:15.274Z,0.80
2023-03-12T09:31:23.809Z,0.40
2023-03-12T09:33:34.279Z,0.70
2023-03-12T09:35:43.664Z,1.03
2023-03-12T09:37:52.718Z,0.60
2023-03-12T09:40:01.785Z,1.40
2023-03-12T09:42:14.506Z,2.77
2023-03-12T09:44:31.312Z,0.60
2023-03-12T09:46:50.086Z,0.70
2023-03-12T09:49:01.005Z,0.73
2023-03-12T09:51:14.986Z,0.47
2023-03-12T09:53:29.602Z,0.60
2023-03-12T09:55:39.887Z,0.50
2023-03-12T09:57:49.073Z,0.70
2023-03-12T09:59:59.545Z,0.40
2023-03-12T10:02:15.756Z,0.40
2023-03-12T10:04:29.760Z,0.73
2023-03-12T10:06:41.196Z,0.40
2023-03-12T10:08:57.539Z,0.30
2023-03-12T10:11:10.650Z,0.60
2023-03-12T10:13:26.792Z,0.60
2023-03-12T10:15:45.235Z,0.50
2023-03-12T10:17:59.798Z,0.60
2023-03-12T10:20:24.518Z,0.50
2023-03-12T10:22:41.961Z,0.47
2023-03-12T10:24:57.516Z,0.40
2023-03-12T10:27:13.237Z,0.60
2023-03-12T10:29:23.917Z,0.50
2023-03-12T10:31:36.804Z,0.60
2023-03-12T10:33:49.272Z,0.30
2023-03-12T10:35:59.201Z,0.60
2023-03-12T10:38:12.244Z,0.30
2023-03-12T10:40:22.058Z,0.50
2023-03-12T10:42:32.196Z,0.30
2023-03-12T10:44:41.757Z,0.40
2023-03-12T10:46:59.769Z,0.40
2023-03-12T10:49:25.107Z,0.40
2023-03-12T10:51:33.966Z,0.37
2023-03-12T10:53:44.929Z,0.30
2023-03-12T10:56:00.297Z,0.40
2023-03-12T10:58:08.912Z,0.30
2023-03-12T11:00:21.104Z,0.50
2023-03-12T11:02:36.277Z,0.47
2023-03-12T11:04:53.291Z,0.20
2023-03-12T11:07:10.307Z,0.37
2023-03-12T11:09:20.043Z,0.50
2023-03-12T11:11:33.319Z,0.40
2023-03-12T11:13:43.898Z,0.50
2023-03-12T11:15:53.359Z,0.40
2023-03-12T11:18:21.731Z,0.30
2023-03-12T11:20:31.480Z,0.73
2023-03-12T11:22:40.059Z,0.60
2023-03-12T11:24:57.600Z,0.50
2023-03-12T11:27:08.734Z,0.73
2023-03-12T11:29:21.311Z,0.30
2023-03-12T11:31:33.199Z,0.47
2023-03-12T11:33:44.782Z,0.50
2023-03-12T11:35:57.700Z,0.47
2023-03-12T11:38:10.685Z,0.50
2023-03-12T11:40:23.341Z,0.27
2023-03-12T11:42:38.842Z,0.30
2023-03-12T11:44:54.574Z,0.30
2023-03-12T11:47:14.384Z,0.77
2023-03-12T11:49:29.797Z,0.50
2023-03-12T11:51:44.236Z,0.50
2023-03-12T11:54:01.577Z,0.47
2023-03-12T11:56:16.256Z,0.30
2023-03-12T11:58:38.251Z,0.40
2023-03-12T12:00:49.533Z,0.40
2023-03-12T12:03:08.473Z,0.40
2023-03-12T12:05:28.522Z,0.40
2023-03-12T12:07:43.916Z,0.50
2023-03-12T12:09:58.699Z,0.40
2023-03-12T12:12:13.989Z,0.40
2023-03-12T12:14:28.222Z,0.50
2023-03-12T12:16:45.417Z,0.50
2023-03-12T12:19:02.197Z,0.50
2023-03-12T12:21:20.993Z,0.20
2023-03-12T12:23:34.922Z,1.10
2023-03-12T12:25:52.003Z,0.30
2023-03-12T12:28:22.108Z,0.30
2023-03-12T12:30:35.438Z,0.30
2023-03-12T12:32:53.184Z,0.40
2023-03-12T12:35:08.673Z,0.60
2023-03-12T12:37:22.794Z,0.80
2023-03-12T12:39:34.222Z,0.40
2023-03-12T12:41:45.730Z,0.37
2023-03-12T12:43:58.103Z,0.47
2023-03-12T12:46:07.934Z,0.50
2023-03-12T12:48:19.250Z,0.40
2023-03-12T12:50:29.670Z,0.30
2023-03-12T12:52:39.618Z,0.30
2023-03-12T12:54:53.913Z,0.40
2023-03-12T12:57:05.624Z,0.40
2023-03-12T12:59:30.673Z,0.50
2023-03-12T13:01:40.513Z,0.20
2023-03-12T13:03:50.100Z,0.40
2023-03-12T13:06:00.404Z,0.30
2023-03-12T13:08:10.391Z,0.47
2023-03-12T13:10:37.673Z,0.30
2023-03-12T13:12:51.307Z,0.30
2023-03-12T13:15:01.032Z,0.20
2023-03-12T13:17:25.541Z,0.63
2023-03-12T13:19:45.019Z,0.30
2023-03-12T13:22:06.655Z,0.40
2023-03-12T13:24:21.543Z,0.20
2023-03-12T13:26:32.742Z,0.20
2023-03-12T13:29:11.444Z,0.43
2023-03-12T13:31:41.793Z,0.20
2023-03-12T13:33:51.379Z,0.20
2023-03-12T13:36:08.058Z,0.40
2023-03-12T13:38:20.877Z,0.30
2023-03-12T13:40:38.553Z,0.30
2023-03-12T13:43:03.496Z,0.30
2023-03-12T13:45:24.788Z,0.30
2023-03-12T13:47:34.809Z,0.30
2023-03-12T13:49:45.383Z,0.30
2023-03-12T13:51:58.770Z,0.20
2023-03-12T13:54:08.018Z,0.23
2023-03-12T13:56:20.225Z,0.33
2023-03-12T13:58:29.900Z,0.47
2023-03-12T14:00:40.897Z,0.40
2023-03-12T14:02:51.683Z,0.30
2023-03-12T14:05:05.756Z,0.27
2023-03-12T14:07:30.256Z,0.30
2023-03-12T14:09:42.962Z,0.30
2023-03-12T14:11:58.537Z,0.33
2023-03-12T14:14:19.585Z,0.47
2023-03-12T14:16:32.725Z,0.30
2023-03-12T14:18:42.370Z,0.40
2023-03-12T14:20:55.258Z,0.30
2023-03-12T14:23:06.954Z,0.30
2023-03-12T14:25:16.891Z,0.30
2023-03-12T14:27:29.210Z,0.40
2023-03-12T14:29:39.738Z,0.50
2023-03-12T14:31:48.735Z,0.50
2023-03-12T14:33:59.649Z,0.40
2023-03-12T14:36:10.580Z,0.30
2023-03-12T14:38:23.746Z,0.47
2023-03-12T14:40:38.116Z,0.30
2023-03-12T14:42:48.764Z,0.30
2023-03-12T14:45:00.714Z,0.30
2023-03-12T14:47:11.749Z,0.50
2023-03-12T14:49:22.516Z,0.40
2023-03-12T14:51:32.354Z,0.30
2023-03-12T14:53:41.652Z,0.40
2023-03-12T14:56:00.289Z,0.50
2023-03-12T14:58:17.456Z,0.30
2023-03-12T15:00:27.643Z,0.23
2023-03-12T15:02:39.695Z,0.47
2023-03-12T15:04:49.439Z,0.30
2023-03-12T15:06:59.536Z,0.30
2023-03-12T15:09:09.717Z,0.40
2023-03-12T15:11:23.073Z,0.30
2023-03-12T15:13:34.143Z,0.50
2023-03-12T15:15:43.814Z,0.27
2023-03-12T15:17:52.657Z,0.37
2023-03-12T15:20:01.873Z,0.40
2023-03-12T15:22:13.049Z,0.40
2023-03-12T15:24:22.130Z,0.30
2023-03-12T15:26:33.252Z,0.47
2023-03-12T15:28:44.051Z,0.60
2023-03-12T15:31:06.611Z,0.53
2023-03-12T15:33:25.767Z,0.80
2023-03-12T15:35:35.137Z,0.40
2023-03-12T15:37:53.527Z,0.40
2023-03-12T15:40:06.414Z,0.50
2023-03-12T15:42:19.621Z,0.60
2023-03-12T15:44:31.247Z,0.70
2023-03-12T15:46:40.434Z,0.70
2023-03-12T15:48:51.575Z,0.70
2023-03-12T15:51:01.047Z,0.53
2023-03-12T15:53:27.193Z,0.40
2023-03-12T15:55:36.881Z,0.30
2023-03-12T15:57:49.243Z,0.40
2023-03-12T16:00:25.285Z,0.30
2023-03-12T16:02:39.433Z,0.47
2023-03-12T16:04:48.202Z,0.30
2023-03-12T16:06:56.950Z,0.40
2023-03-12T16:09:06.764Z,0.30
2023-03-12T16:11:17.801Z,0.67
2023-03-12T16:13:31.384Z,0.30
2023-03-12T16:15:40.983Z,0.30
2023-03-12T16:17:51.180Z,0.47
2023-03-12T16:20:00.265Z,0.20
2023-03-12T16:22:08.982Z,0.20
2023-03-12T16:24:18.208Z,0.50
2023-03-12T16:26:27.231Z,0.40
2023-03-12T16:28:36.385Z,0.33
2023-03-12T16:30:45.644Z,0.43
2023-03-12T16:32:56.084Z,0.20
2023-03-12T16:35:08.006Z,0.40
2023-03-12T16:37:16.928Z,0.30
2023-03-12T16:39:30.465Z,0.50
2023-03-12T16:41:39.221Z,0.30
2023-03-12T16:43:49.475Z,0.30
2023-03-12T16:45:58.292Z,0.40
2023-03-12T16:48:09.893Z,0.40
2023-03-12T16:50:19.632Z,0.30
2023-03-12T16:52:28.252Z,0.30
2023-03-12T16:54:37.256Z,0.30
2023-03-12T16:56:47.978Z,0.97
2023-03-12T16:58:57.441Z,0.70
2023-03-12T17:01:06.976Z,0.40
2023-03-12T17:03:30.136Z,0.37
2023-03-12T17:05:39.161Z,0.20
2023-03-12T17:07:47.621Z,0.60
2023-03-12T17:09:57.393Z,0.57
2023-03-12T17:12:07.055Z,0.40
2023-03-12T17:14:19.022Z,0.20
2023-03-12T17:16:27.817Z,0.40
2023-03-12T17:18:39.433Z,0.30
2023-03-12T17:20:49.391Z,0.33
2023-03-12T17:22:58.374Z,0.40
2023-03-12T17:25:07.957Z,0.10
2023-03-12T17:27:17.301Z,0.20
2023-03-12T17:29:26.216Z,0.40
2023-03-12T17:31:37.599Z,0.53
2023-03-12T17:33:48.126Z,0.70
2023-03-12T17:36:00.385Z,0.80
2023-03-12T17:38:09.476Z,0.80
2023-03-12T17:40:18.306Z,0.70
2023-03-12T17:42:27.099Z,1.00
2023-03-12T17:44:37.028Z,1.10
2023-03-12T17:46:58.546Z,1.17
2023-03-12T17:49:09.979Z,1.20
2023-03-12T17:51:18.608Z,1.47
2023-03-12T17:53:27.321Z,1.30
2023-03-12T17:55:38.150Z,1.03
2023-03-12T17:57:47.137Z,0.40
2023-03-12T17:59:56.103Z,0.80
2023-03-12T18:02:05.119Z,0.50
2023-03-12T18:04:15.844Z,0.60
2023-03-12T18:06:24.678Z,0.47
2023-03-12T18:08:33.445Z,0.80
2023-03-12T18:10:42.237Z,0.30
2023-03-12T18:12:51.754Z,0.40
2023-03-12T18:15:00.363Z,0.70
2023-03-12T18:17:09.487Z,0.57
2023-03-12T18:19:20.096Z,0.30
2023-03-12T18:21:29.169Z,0.40
2023-03-12T18:23:38.001Z,0.40
2023-03-12T18:25:47.510Z,0.20
2023-03-12T18:27:57.193Z,0.33
2023-03-12T18:30:08.476Z,0.40
2023-03-12T18:32:17.655Z,0.50
2023-03-12T18:34:28.289Z,0.60
2023-03-12T18:36:37.360Z,0.40
2023-03-12T18:38:46.387Z,0.30
2023-03-12T18:41:03.496Z,0.40
2023-03-12T18:43:13.706Z,0.40
2023-03-12T18:45:22.776Z,0.43
2023-03-12T18:47:31.605Z,0.47
2023-03-12T18:49:42.873Z,0.47
2023-03-12T18:51:56.130Z,0.53
2023-03-12T18:54:04.976Z,0.40
2023-03-12T18:56:14.319Z,0.80
2023-03-12T18:58:23.458Z,0.60
2023-03-12T19:00:32.181Z,0.73
2023-03-12T19:02:40.936Z,0.27
2023-03-12T19:04:51.419Z,0.60
2023-03-12T19:07:00.698Z,0.83
2023-03-12T19:09:10.038Z,0.93
2023-03-12T19:11:18.773Z,0.90
2023-03-12T19:13:27.668Z,0.50
2023-03-12T19:15:38.481Z,0.50
2023-03-12T19:17:47.492Z,0.60
2023-03-12T19:19:58.238Z,0.90
2023-03-12T19:22:06.867Z,0.70
2023-03-12T19:24:15.910Z,0.43
2023-03-12T19:26:24.953Z,0.50
2023-03-12T19:28:34.529Z,0.50
2023-03-12T19:30:43.524Z,0.30
2023-03-12T19:32:52.163Z,0.40
2023-03-12T19:35:02.659Z,0.43
2023-03-12T19:37:12.140Z,0.40
2023-03-12T19:39:21.877Z,0.50
2023-03-12T19:41:30.604Z,0.60
2023-03-12T19:43:41.241Z,0.40
2023-03-12T19:45:50.435Z,0.40
2023-03-12T19:47:59.806Z,0.57
2023-03-12T19:50:10.771Z,0.33
2023-03-12T19:52:20.499Z,0.37
2023-03-12T19:54:29.580Z,0.40
2023-03-12T19:56:38.745Z,0.43
2023-03-12T19:58:47.316Z,0.20
2023-03-12T20:00:56.377Z,0.40
2023-03-12T20:03:06.181Z,0.40
2023-03-12T20:05:17.146Z,0.40
2023-03-12T20:07:26.238Z,0.50
2023-03-12T20:09:35.793Z,0.47
2023-03-12T20:11:44.697Z,0.40
2023-03-12T20:13:53.413Z,0.30
2023-03-12T20:16:02.047Z,0.70
2023-03-12T20:18:11.105Z,0.70
2023-03-12T20:20:22.286Z,0.50
2023-03-12T20:22:32.331Z,0.20
2023-03-12T20:24:41.053Z,0.50
2023-03-12T20:26:50.298Z,0.50
2023-03-12T20:29:03.133Z,0.40
2023-03-12T20:31:12.523Z,0.73
2023-03-12T20:33:21.272Z,0.70
2023-03-12T20:35:31.716Z,0.70
2023-03-12T20:37:40.746Z,0.60
2023-03-12T20:39:49.732Z,0.63
2023-03-12T20:41:58.365Z,0.70
2023-03-12T20:44:07.032Z,0.80
2023-03-12T20:46:15.719Z,1.00
2023-03-12T20:48:24.601Z,1.27
2023-03-12T20:50:35.340Z,0.73
2023-03-12T20:52:45.699Z,0.83
2023-03-12T20:54:55.180Z,0.87
2023-03-12T20:57:04.302Z,0.77
2023-03-12T20:59:13.038Z,0.87
2023-03-12T21:01:22.017Z,1.40
2023-03-12T21:03:31.188Z,1.30
2023-03-12T21:05:42.790Z,1.20
2023-03-12T21:07:51.701Z,0.70
2023-03-12T21:10:00.733Z,0.73
2023-03-12T21:12:09.587Z,0.70
2023-03-12T21:14:18.627Z,0.60
2023-03-12T21:16:27.478Z,0.60
2023-03-12T21:18:36.636Z,1.07
2023-03-12T21:20:46.964Z,0.60
2023-03-12T21:22:56.141Z,0.73
2023-03-12T21:25:05.376Z,0.60
2023-03-12T21:27:15.138Z,0.70
2023-03-12T21:29:23.738Z,0.80
2023-03-12T21:31:32.929Z,0.77
2023-03-12T21:33:41.550Z,0.97
2023-03-12T21:35:51.976Z,0.80
2023-03-12T21:38:02.847Z,1.60
2023-03-12T21:40:12.704Z,1.70
2023-03-12T21:42:21.440Z,3.53
2023-03-12T21:44:30.074Z,1.70
2023-03-12T21:46:39.339Z,2.00
2023-03-12T21:48:48.923Z,1.50
2023-03-12T21:51:03.156Z,1.27
2023-03-12T21:53:23.125Z,1.57
2023-03-12T21:55:32.711Z,1.00
2023-03-12T21:57:41.672Z,0.80
2023-03-12T21:59:50.859Z,1.30
2023-03-12T22:02:00.153Z,1.40
2023-03-12T22:04:09.772Z,1.57
2023-03-12T22:06:19.898Z,1.37
2023-03-12T22:08:28.746Z,1.40
2023-03-12T22:10:37.466Z,0.83
2023-03-12T22:12:46.635Z,0.90
2023-03-12T22:14:55.292Z,0.80
2023-03-12T22:17:04.159Z,0.50
2023-03-12T22:19:13.405Z,0.50
2023-03-12T22:21:24.532Z,0.63
2023-03-12T22:23:33.319Z,0.50
2023-03-12T22:25:42.024Z,0.57
2023-03-12T22:27:50.979Z,0.60
2023-03-12T22:29:59.953Z,0.40
2023-03-12T22:32:09.132Z,0.53
2023-03-12T22:34:17.886Z,0.43
2023-03-12T22:36:28.018Z,0.37
2023-03-12T22:38:37.650Z,0.40
2023-03-12T22:40:47.172Z,0.40
2023-03-12T22:42:57.895Z,0.50
2023-03-12T22:45:07.248Z,0.70
2023-03-12T22:47:15.998Z,0.67
2023-03-12T22:49:24.979Z,0.60
2023-03-12T22:51:35.772Z,0.50
2023-03-12T22:53:44.735Z,0.60
2023-03-12T22:55:58.417Z,0.70
2023-03-12T22:58:07.010Z,0.60
2023-03-12T23:00:17.320Z,0.50
2023-03-12T23:02:26.221Z,0.67
2023-03-12T23:04:35.522Z,0.40
2023-03-12T23:06:45.784Z,0.60
2023-03-12T23:08:55.883Z,0.53
2023-03-12T23:11:05.703Z,0.40
2023-03-12T23:13:14.385Z,0.50
2023-03-12T23:15:29.117Z,0.50
2023-03-12T23:17:43.615Z,0.50
2023-03-12T23:19:52.373Z,0.40
2023-03-12T23:22:03.130Z,0.70
2023-03-12T23:24:11.965Z,0.90
2023-03-12T23:26:22.669Z,1.10
2023-03-12T23:28:32.544Z,0.93
2023-03-12T23:30:41.282Z,1.17
2023-03-12T23:32:50.227Z,0.77
2023-03-12T23:34:59.219Z,0.80
2023-03-12T23:37:09.561Z,0.57
2023-03-12T23:39:18.461Z,0.70
2023-03-12T23:41:29.418Z,0.70
2023-03-12T23:43:38.578Z,0.57
2023-03-12T23:45:47.320Z,0.50
2023-03-12T23:47:56.435Z,0.57
2023-03-12T23:50:05.471Z,0.57
2023-03-12T23:52:15.640Z,0.60
2023-03-12T23:54:24.524Z,0.70
2023-03-12T23:56:34.115Z,0.57
2023-03-12T23:58:43.611Z,0.73
